sensor_id;sensor_type;location;lat;lon;timestamp;P1;durP1;ratioP1;P2;durP2;ratioP2
31378;SDS011;61664;48.112;11.662;2023-06-04T00:00:19;4.07;;;2.72;;
31378;SDS011;61664;48.112;11.662;2023-06-04T00:02:46;3.00;;;2.80;;
31378;SDS011;61664;48.112;11.662;2023-06-04T00:05:13;2.80;;;2.60;;
31378;SDS011;61664;48.112;11.662;2023-06-04T00:07:40;2.95;;;2.70;;
31378;SDS011;61664;48.112;11.662;2023-06-04T00:10:07;3.05;;;2.67;;
31378;SDS011;61664;48.112;11.662;2023-06-04T00:12:34;2.85;;;2.65;;
31378;SDS011;61664;48.112;11.662;2023-06-04T00:15:02;3.08;;;2.88;;
31378;SDS011;61664;48.112;11.662;2023-06-04T00:17:29;2.95;;;2.75;;
31378;SDS011;61664;48.112;11.662;2023-06-04T00:19:56;2.85;;;2.65;;
31378;SDS011;61664;48.112;11.662;2023-06-04T00:22:23;3.13;;;2.83;;
31378;SDS011;61664;48.112;11.662;2023-06-04T00:24:50;2.60;;;2.40;;
31378;SDS011;61664;48.112;11.662;2023-06-04T00:27:17;2.53;;;2.33;;
31378;SDS011;61664;48.112;11.662;2023-06-04T00:29:44;3.60;;;2.33;;
31378;SDS011;61664;48.112;11.662;2023-06-04T00:32:11;2.47;;;2.28;;
31378;SDS011;61664;48.112;11.662;2023-06-04T00:34:38;2.42;;;2.22;;
31378;SDS011;61664;48.112;11.662;2023-06-04T00:37:05;2.40;;;1.60;;
31378;SDS011;61664;48.112;11.662;2023-06-04T00:39:32;2.25;;;2.05;;
31378;SDS011;61664;48.112;11.662;2023-06-04T00:42:00;2.15;;;1.95;;
31378;SDS011;61664;48.112;11.662;2023-06-04T00:44:27;3.72;;;2.00;;
31378;SDS011;61664;48.112;11.662;2023-06-04T00:46:54;2.17;;;1.98;;
31378;SDS011;61664;48.112;11.662;2023-06-04T00:49:21;2.03;;;1.85;;
31378;SDS011;61664;48.112;11.662;2023-06-04T00:51:48;2.45;;;2.25;;
31378;SDS011;61664;48.112;11.662;2023-06-04T00:54:16;3.30;;;2.08;;
31378;SDS011;61664;48.112;11.662;2023-06-04T00:56:47;2.70;;;2.00;;
31378;SDS011;61664;48.112;11.662;2023-06-04T00:59:14;2.83;;;2.33;;
31378;SDS011;61664;48.112;11.662;2023-06-04T01:04:36;2.22;;;2.10;;
31378;SDS011;61664;48.112;11.662;2023-06-04T01:07:26;2.10;;;1.90;;
31378;SDS011;61664;48.112;11.662;2023-06-04T01:09:54;2.20;;;2.10;;
31378;SDS011;61664;48.112;11.662;2023-06-04T01:12:22;2.10;;;2.00;;
31378;SDS011;61664;48.112;11.662;2023-06-04T01:14:49;2.00;;;1.90;;
31378;SDS011;61664;48.112;11.662;2023-06-04T01:17:20;4.45;;;2.10;;
31378;SDS011;61664;48.112;11.662;2023-06-04T01:20:14;2.00;;;1.80;;
31378;SDS011;61664;48.112;11.662;2023-06-04T01:25:33;2.53;;;1.77;;
31378;SDS011;61664;48.112;11.662;2023-06-04T01:28:08;2.47;;;2.00;;
31378;SDS011;61664;48.112;11.662;2023-06-04T01:30:39;2.05;;;1.83;;
31378;SDS011;61664;48.112;11.662;2023-06-04T01:33:16;3.47;;;1.80;;
31378;SDS011;61664;48.112;11.662;2023-06-04T01:35:45;1.90;;;1.80;;
31378;SDS011;61664;48.112;11.662;2023-06-04T01:38:12;1.67;;;1.58;;
31378;SDS011;61664;48.112;11.662;2023-06-04T01:40:40;2.15;;;2.05;;
31378;SDS011;61664;48.112;11.662;2023-06-04T01:43:07;2.63;;;2.42;;
31378;SDS011;61664;48.112;11.662;2023-06-04T01:45:34;2.17;;;2.08;;
31378;SDS011;61664;48.112;11.662;2023-06-04T01:48:02;1.65;;;1.55;;
31378;SDS011;61664;48.112;11.662;2023-06-04T01:50:31;1.92;;;1.83;;
31378;SDS011;61664;48.112;11.662;2023-06-04T01:52:59;5.30;;;2.03;;
31378;SDS011;61664;48.112;11.662;2023-06-04T01:55:26;2.53;;;2.00;;
31378;SDS011;61664;48.112;11.662;2023-06-04T01:57:55;2.20;;;2.00;;
31378;SDS011;61664;48.112;11.662;2023-06-04T02:00:22;2.00;;;1.90;;
31378;SDS011;61664;48.112;11.662;2023-06-04T02:02:49;2.42;;;2.22;;
31378;SDS011;61664;48.112;11.662;2023-06-04T02:05:17;2.55;;;2.35;;
31378;SDS011;61664;48.112;11.662;2023-06-04T02:07:44;2.20;;;1.80;;
31378;SDS011;61664;48.112;11.662;2023-06-04T02:10:14;2.50;;;2.20;;
31378;SDS011;61664;48.112;11.662;2023-06-04T02:12:57;2.28;;;2.17;;
31378;SDS011;61664;48.112;11.662;2023-06-04T02:15:29;2.35;;;1.70;;
31378;SDS011;61664;48.112;11.662;2023-06-04T02:17:58;2.05;;;1.88;;
31378;SDS011;61664;48.112;11.662;2023-06-04T02:20:45;2.10;;;2.00;;
31378;SDS011;61664;48.112;11.662;2023-06-04T02:23:13;2.00;;;1.77;;
31378;SDS011;61664;48.112;11.662;2023-06-04T02:25:42;2.22;;;2.00;;
31378;SDS011;61664;48.112;11.662;2023-06-04T02:28:13;1.85;;;1.63;;
31378;SDS011;61664;48.112;11.662;2023-06-04T02:30:40;2.20;;;2.05;;
31378;SDS011;61664;48.112;11.662;2023-06-04T02:33:07;2.10;;;2.00;;
31378;SDS011;61664;48.112;11.662;2023-06-04T02:35:36;1.88;;;1.77;;
31378;SDS011;61664;48.112;11.662;2023-06-04T02:38:03;2.20;;;1.75;;
31378;SDS011;61664;48.112;11.662;2023-06-04T02:40:31;2.33;;;2.13;;
31378;SDS011;61664;48.112;11.662;2023-06-04T02:42:58;2.08;;;1.98;;
31378;SDS011;61664;48.112;11.662;2023-06-04T02:45:25;2.33;;;2.13;;
31378;SDS011;61664;48.112;11.662;2023-06-04T02:47:52;3.50;;;2.10;;
31378;SDS011;61664;48.112;11.662;2023-06-04T02:50:19;2.30;;;1.90;;
31378;SDS011;61664;48.112;11.662;2023-06-04T02:52:46;2.15;;;1.90;;
31378;SDS011;61664;48.112;11.662;2023-06-04T02:55:13;2.17;;;1.88;;
31378;SDS011;61664;48.112;11.662;2023-06-04T02:57:41;1.80;;;1.70;;
31378;SDS011;61664;48.112;11.662;2023-06-04T03:00:10;2.25;;;2.05;;
31378;SDS011;61664;48.112;11.662;2023-06-04T03:05:09;1.77;;;1.67;;
31378;SDS011;61664;48.112;11.662;2023-06-04T03:07:39;2.17;;;1.63;;
31378;SDS011;61664;48.112;11.662;2023-06-04T03:10:10;1.75;;;1.65;;
31378;SDS011;61664;48.112;11.662;2023-06-04T03:12:38;1.63;;;1.52;;
31378;SDS011;61664;48.112;11.662;2023-06-04T03:15:06;2.30;;;2.10;;
31378;SDS011;61664;48.112;11.662;2023-06-04T03:17:33;2.50;;;2.30;;
31378;SDS011;61664;48.112;11.662;2023-06-04T03:20:00;2.22;;;1.80;;
31378;SDS011;61664;48.112;11.662;2023-06-04T03:22:30;1.98;;;1.88;;
31378;SDS011;61664;48.112;11.662;2023-06-04T03:24:57;1.90;;;1.80;;
31378;SDS011;61664;48.112;11.662;2023-06-04T03:27:23;2.30;;;2.10;;
31378;SDS011;61664;48.112;11.662;2023-06-04T03:29:51;2.45;;;2.25;;
31378;SDS011;61664;48.112;11.662;2023-06-04T03:32:18;4.88;;;1.90;;
31378;SDS011;61664;48.112;11.662;2023-06-04T03:34:44;2.60;;;2.40;;
31378;SDS011;61664;48.112;11.662;2023-06-04T03:37:11;2.42;;;2.13;;
31378;SDS011;61664;48.112;11.662;2023-06-04T03:39:38;2.42;;;2.22;;
31378;SDS011;61664;48.112;11.662;2023-06-04T03:42:05;2.10;;;1.95;;
31378;SDS011;61664;48.112;11.662;2023-06-04T03:44:32;2.22;;;2.03;;
31378;SDS011;61664;48.112;11.662;2023-06-04T03:46:59;3.05;;;1.95;;
31378;SDS011;61664;48.112;11.662;2023-06-04T03:49:26;1.48;;;1.38;;
31378;SDS011;61664;48.112;11.662;2023-06-04T03:51:53;2.75;;;2.13;;
31378;SDS011;61664;48.112;11.662;2023-06-04T03:54:21;2.92;;;1.83;;
31378;SDS011;61664;48.112;11.662;2023-06-04T03:56:48;2.75;;;1.77;;
31378;SDS011;61664;48.112;11.662;2023-06-04T03:59:15;2.78;;;2.08;;
31378;SDS011;61664;48.112;11.662;2023-06-04T04:01:42;2.95;;;2.00;;
31378;SDS011;61664;48.112;11.662;2023-06-04T04:04:09;2.58;;;2.35;;
31378;SDS011;61664;48.112;11.662;2023-06-04T04:06:36;2.15;;;1.95;;
31378;SDS011;61664;48.112;11.662;2023-06-04T04:09:04;2.55;;;2.35;;
31378;SDS011;61664;48.112;11.662;2023-06-04T04:11:33;2.45;;;2.25;;
31378;SDS011;61664;48.112;11.662;2023-06-04T04:13:59;2.35;;;2.03;;
31378;SDS011;61664;48.112;11.662;2023-06-04T04:16:27;2.17;;;1.98;;
31378;SDS011;61664;48.112;11.662;2023-06-04T04:18:54;3.10;;;2.03;;
31378;SDS011;61664;48.112;11.662;2023-06-04T04:21:22;1.77;;;1.67;;
31378;SDS011;61664;48.112;11.662;2023-06-04T04:23:49;2.22;;;2.03;;
31378;SDS011;61664;48.112;11.662;2023-06-04T04:26:17;2.72;;;2.35;;
31378;SDS011;61664;48.112;11.662;2023-06-04T04:28:44;2.00;;;1.90;;
31378;SDS011;61664;48.112;11.662;2023-06-04T04:31:11;1.95;;;1.85;;
31378;SDS011;61664;48.112;11.662;2023-06-04T04:33:39;2.50;;;1.80;;
31378;SDS011;61664;48.112;11.662;2023-06-04T04:36:06;2.28;;;2.10;;
31378;SDS011;61664;48.112;11.662;2023-06-04T04:38:39;2.00;;;1.90;;
31378;SDS011;61664;48.112;11.662;2023-06-04T04:41:06;3.45;;;2.08;;
31378;SDS011;61664;48.112;11.662;2023-06-04T04:43:36;2.08;;;1.98;;
31378;SDS011;61664;48.112;11.662;2023-06-04T04:46:06;2.03;;;1.92;;
31378;SDS011;61664;48.112;11.662;2023-06-04T04:48:33;2.30;;;2.10;;
31378;SDS011;61664;48.112;11.662;2023-06-04T04:51:00;1.80;;;1.70;;
31378;SDS011;61664;48.112;11.662;2023-06-04T04:53:27;4.38;;;2.10;;
31378;SDS011;61664;48.112;11.662;2023-06-04T04:55:54;3.15;;;2.33;;
31378;SDS011;61664;48.112;11.662;2023-06-04T04:58:21;2.35;;;2.15;;
31378;SDS011;61664;48.112;11.662;2023-06-04T05:00:48;2.25;;;2.15;;
31378;SDS011;61664;48.112;11.662;2023-06-04T05:03:15;2.22;;;2.13;;
31378;SDS011;61664;48.112;11.662;2023-06-04T05:05:42;2.67;;;1.88;;
31378;SDS011;61664;48.112;11.662;2023-06-04T05:08:09;2.20;;;1.83;;
31378;SDS011;61664;48.112;11.662;2023-06-04T05:10:38;2.35;;;2.15;;
31378;SDS011;61664;48.112;11.662;2023-06-04T05:13:05;2.80;;;1.80;;
31378;SDS011;61664;48.112;11.662;2023-06-04T05:15:32;1.42;;;1.33;;
31378;SDS011;61664;48.112;11.662;2023-06-04T05:17:59;1.13;;;1.02;;
31378;SDS011;61664;48.112;11.662;2023-06-04T05:20:30;4.55;;;1.63;;
31378;SDS011;61664;48.112;11.662;2023-06-04T05:22:57;1.55;;;1.45;;
31378;SDS011;61664;48.112;11.662;2023-06-04T05:25:24;1.77;;;1.67;;
31378;SDS011;61664;48.112;11.662;2023-06-04T05:27:53;3.47;;;1.88;;
31378;SDS011;61664;48.112;11.662;2023-06-04T05:30:22;1.25;;;1.15;;
31378;SDS011;61664;48.112;11.662;2023-06-04T05:32:49;2.83;;;2.03;;
31378;SDS011;61664;48.112;11.662;2023-06-04T05:35:17;1.83;;;1.42;;
31378;SDS011;61664;48.112;11.662;2023-06-04T05:37:44;1.98;;;1.50;;
31378;SDS011;61664;48.112;11.662;2023-06-04T05:40:12;1.88;;;1.65;;
31378;SDS011;61664;48.112;11.662;2023-06-04T05:42:40;1.65;;;1.23;;
31378;SDS011;61664;48.112;11.662;2023-06-04T05:45:08;2.30;;;2.10;;
31378;SDS011;61664;48.112;11.662;2023-06-04T05:47:35;1.40;;;1.30;;
31378;SDS011;61664;48.112;11.662;2023-06-04T05:50:03;1.50;;;1.40;;
31378;SDS011;61664;48.112;11.662;2023-06-04T05:52:32;2.15;;;1.90;;
31378;SDS011;61664;48.112;11.662;2023-06-04T05:55:00;6.20;;;2.00;;
31378;SDS011;61664;48.112;11.662;2023-06-04T05:57:27;1.48;;;1.23;;
31378;SDS011;61664;48.112;11.662;2023-06-04T05:59:54;1.73;;;0.95;;
31378;SDS011;61664;48.112;11.662;2023-06-04T06:02:21;2.22;;;1.40;;
31378;SDS011;61664;48.112;11.662;2023-06-04T06:04:48;1.27;;;1.20;;
31378;SDS011;61664;48.112;11.662;2023-06-04T06:07:15;2.42;;;1.38;;
31378;SDS011;61664;48.112;11.662;2023-06-04T06:09:42;1.98;;;1.50;;
31378;SDS011;61664;48.112;11.662;2023-06-04T06:12:09;1.30;;;1.20;;
31378;SDS011;61664;48.112;11.662;2023-06-04T06:14:36;1.70;;;1.55;;
31378;SDS011;61664;48.112;11.662;2023-06-04T06:17:03;1.35;;;1.25;;
31378;SDS011;61664;48.112;11.662;2023-06-04T06:19:30;2.67;;;1.63;;
31378;SDS011;61664;48.112;11.662;2023-06-04T06:21:57;2.67;;;1.75;;
31378;SDS011;61664;48.112;11.662;2023-06-04T06:24:25;2.03;;;1.80;;
31378;SDS011;61664;48.112;11.662;2023-06-04T06:26:51;1.48;;;1.38;;
31378;SDS011;61664;48.112;11.662;2023-06-04T06:29:19;1.63;;;1.20;;
31378;SDS011;61664;48.112;11.662;2023-06-04T06:31:46;1.70;;;1.50;;
31378;SDS011;61664;48.112;11.662;2023-06-04T06:34:13;1.80;;;1.70;;
31378;SDS011;61664;48.112;11.662;2023-06-04T06:36:40;1.55;;;1.42;;
31378;SDS011;61664;48.112;11.662;2023-06-04T06:39:08;1.95;;;1.33;;
31378;SDS011;61664;48.112;11.662;2023-06-04T06:41:35;1.60;;;1.30;;
31378;SDS011;61664;48.112;11.662;2023-06-04T06:44:04;2.20;;;1.73;;
31378;SDS011;61664;48.112;11.662;2023-06-04T06:46:31;3.90;;;1.38;;
31378;SDS011;61664;48.112;11.662;2023-06-04T06:48:59;1.80;;;1.70;;
31378;SDS011;61664;48.112;11.662;2023-06-04T06:51:26;2.60;;;1.60;;
31378;SDS011;61664;48.112;11.662;2023-06-04T06:53:53;2.00;;;1.80;;
31378;SDS011;61664;48.112;11.662;2023-06-04T06:56:20;1.50;;;1.40;;
31378;SDS011;61664;48.112;11.662;2023-06-04T06:58:47;1.88;;;1.60;;
31378;SDS011;61664;48.112;11.662;2023-06-04T07:01:14;1.60;;;1.50;;
31378;SDS011;61664;48.112;11.662;2023-06-04T07:03:41;2.17;;;1.50;;
31378;SDS011;61664;48.112;11.662;2023-06-04T07:06:08;1.20;;;1.13;;
31378;SDS011;61664;48.112;11.662;2023-06-04T07:08:35;1.67;;;1.58;;
31378;SDS011;61664;48.112;11.662;2023-06-04T07:11:02;2.00;;;1.70;;
31378;SDS011;61664;48.112;11.662;2023-06-04T07:13:30;1.92;;;1.83;;
31378;SDS011;61664;48.112;11.662;2023-06-04T07:15:58;1.83;;;1.40;;
31378;SDS011;61664;48.112;11.662;2023-06-04T07:18:26;2.05;;;1.85;;
31378;SDS011;61664;48.112;11.662;2023-06-04T07:20:53;1.42;;;1.33;;
31378;SDS011;61664;48.112;11.662;2023-06-04T07:23:22;1.98;;;1.52;;
31378;SDS011;61664;48.112;11.662;2023-06-04T07:25:50;1.40;;;1.30;;
31378;SDS011;61664;48.112;11.662;2023-06-04T07:28:17;2.35;;;1.38;;
31378;SDS011;61664;48.112;11.662;2023-06-04T07:30:47;1.50;;;1.40;;
31378;SDS011;61664;48.112;11.662;2023-06-04T07:33:14;2.13;;;1.70;;
31378;SDS011;61664;48.112;11.662;2023-06-04T07:35:41;1.50;;;1.40;;
31378;SDS011;61664;48.112;11.662;2023-06-04T07:38:08;1.90;;;1.70;;
31378;SDS011;61664;48.112;11.662;2023-06-04T07:40:35;1.30;;;1.20;;
31378;SDS011;61664;48.112;11.662;2023-06-04T07:43:02;1.50;;;1.40;;
31378;SDS011;61664;48.112;11.662;2023-06-04T07:45:29;1.52;;;1.42;;
31378;SDS011;61664;48.112;11.662;2023-06-04T07:48:00;1.70;;;1.60;;
31378;SDS011;61664;48.112;11.662;2023-06-04T07:50:28;1.88;;;1.77;;
31378;SDS011;61664;48.112;11.662;2023-06-04T07:52:57;2.45;;;2.00;;
31378;SDS011;61664;48.112;11.662;2023-06-04T07:55:23;1.67;;;1.58;;
31378;SDS011;61664;48.112;11.662;2023-06-04T07:57:50;1.08;;;1.05;;
31378;SDS011;61664;48.112;11.662;2023-06-04T08:00:17;2.75;;;1.27;;
31378;SDS011;61664;48.112;11.662;2023-06-04T08:02:44;1.52;;;1.23;;
31378;SDS011;61664;48.112;11.662;2023-06-04T08:05:12;1.67;;;1.58;;
31378;SDS011;61664;48.112;11.662;2023-06-04T08:07:41;2.17;;;1.70;;
31378;SDS011;61664;48.112;11.662;2023-06-04T08:10:09;2.25;;;1.33;;
31378;SDS011;61664;48.112;11.662;2023-06-04T08:12:36;1.60;;;1.50;;
31378;SDS011;61664;48.112;11.662;2023-06-04T08:15:03;1.40;;;1.20;;
31378;SDS011;61664;48.112;11.662;2023-06-04T08:17:31;1.50;;;1.40;;
31378;SDS011;61664;48.112;11.662;2023-06-04T08:19:59;1.50;;;1.40;;
31378;SDS011;61664;48.112;11.662;2023-06-04T08:22:26;1.40;;;1.30;;
31378;SDS011;61664;48.112;11.662;2023-06-04T08:24:55;1.65;;;1.20;;
31378;SDS011;61664;48.112;11.662;2023-06-04T08:27:22;1.10;;;1.00;;
31378;SDS011;61664;48.112;11.662;2023-06-04T08:29:49;1.83;;;1.40;;
31378;SDS011;61664;48.112;11.662;2023-06-04T08:32:16;1.75;;;1.00;;
31378;SDS011;61664;48.112;11.662;2023-06-04T08:34:43;1.98;;;1.60;;
31378;SDS011;61664;48.112;11.662;2023-06-04T08:37:10;1.83;;;1.50;;
31378;SDS011;61664;48.112;11.662;2023-06-04T08:39:37;1.10;;;0.98;;
31378;SDS011;61664;48.112;11.662;2023-06-04T08:42:04;0.98;;;0.98;;
31378;SDS011;61664;48.112;11.662;2023-06-04T08:44:36;1.83;;;1.38;;
31378;SDS011;61664;48.112;11.662;2023-06-04T08:47:03;0.93;;;0.93;;
31378;SDS011;61664;48.112;11.662;2023-06-04T08:49:35;1.30;;;1.20;;
31378;SDS011;61664;48.112;11.662;2023-06-04T08:52:02;1.30;;;1.20;;
31378;SDS011;61664;48.112;11.662;2023-06-04T08:54:30;0.93;;;0.90;;
31378;SDS011;61664;48.112;11.662;2023-06-04T08:56:58;1.40;;;1.30;;
31378;SDS011;61664;48.112;11.662;2023-06-04T08:59:27;2.30;;;1.65;;
31378;SDS011;61664;48.112;11.662;2023-06-04T09:01:54;1.60;;;1.33;;
31378;SDS011;61664;48.112;11.662;2023-06-04T09:04:23;2.10;;;1.23;;
31378;SDS011;61664;48.112;11.662;2023-06-04T09:06:51;1.30;;;1.20;;
31378;SDS011;61664;48.112;11.662;2023-06-04T09:09:20;1.08;;;0.98;;
31378;SDS011;61664;48.112;11.662;2023-06-04T09:11:52;1.00;;;1.00;;
31378;SDS011;61664;48.112;11.662;2023-06-04T09:14:21;1.10;;;1.00;;
31378;SDS011;61664;48.112;11.662;2023-06-04T09:16:49;1.17;;;0.88;;
31378;SDS011;61664;48.112;11.662;2023-06-04T09:19:20;1.50;;;1.00;;
31378;SDS011;61664;48.112;11.662;2023-06-04T09:24:45;1.90;;;1.05;;
31378;SDS011;61664;48.112;11.662;2023-06-04T09:27:17;0.80;;;0.80;;
31378;SDS011;61664;48.112;11.662;2023-06-04T09:29:52;0.80;;;0.80;;
31378;SDS011;61664;48.112;11.662;2023-06-04T09:32:24;1.13;;;1.10;;
31378;SDS011;61664;48.112;11.662;2023-06-04T09:34:53;1.83;;;1.15;;
31378;SDS011;61664;48.112;11.662;2023-06-04T09:37:23;1.83;;;1.20;;
31378;SDS011;61664;48.112;11.662;2023-06-04T09:39:54;1.15;;;1.05;;
31378;SDS011;61664;48.112;11.662;2023-06-04T09:42:22;1.40;;;1.30;;
31378;SDS011;61664;48.112;11.662;2023-06-04T09:44:50;1.20;;;1.10;;
31378;SDS011;61664;48.112;11.662;2023-06-04T09:47:17;2.17;;;1.08;;
31378;SDS011;61664;48.112;11.662;2023-06-04T09:49:44;0.85;;;0.85;;
31378;SDS011;61664;48.112;11.662;2023-06-04T09:52:13;1.23;;;1.15;;
31378;SDS011;61664;48.112;11.662;2023-06-04T09:54:40;1.30;;;1.20;;
31378;SDS011;61664;48.112;11.662;2023-06-04T09:57:15;2.28;;;1.38;;
31378;SDS011;61664;48.112;11.662;2023-06-04T09:59:46;1.10;;;1.02;;
31378;SDS011;61664;48.112;11.662;2023-06-04T10:02:19;0.95;;;0.95;;
31378;SDS011;61664;48.112;11.662;2023-06-04T10:04:54;0.93;;;0.93;;
31378;SDS011;61664;48.112;11.662;2023-06-04T10:07:25;1.25;;;1.10;;
31378;SDS011;61664;48.112;11.662;2023-06-04T10:09:53;1.20;;;1.20;;
31378;SDS011;61664;48.112;11.662;2023-06-04T10:12:31;1.30;;;1.15;;
31378;SDS011;61664;48.112;11.662;2023-06-04T10:15:10;1.10;;;1.10;;
31378;SDS011;61664;48.112;11.662;2023-06-04T10:17:39;1.15;;;1.00;;
31378;SDS011;61664;48.112;11.662;2023-06-04T10:20:07;4.53;;;1.10;;
31378;SDS011;61664;48.112;11.662;2023-06-04T10:22:36;1.23;;;1.13;;
31378;SDS011;61664;48.112;11.662;2023-06-04T10:25:04;1.50;;;1.30;;
31378;SDS011;61664;48.112;11.662;2023-06-04T10:27:33;1.00;;;1.00;;
31378;SDS011;61664;48.112;11.662;2023-06-04T10:30:03;1.27;;;1.05;;
31378;SDS011;61664;48.112;11.662;2023-06-04T10:32:31;1.20;;;1.13;;
31378;SDS011;61664;48.112;11.662;2023-06-04T10:35:01;1.80;;;1.70;;
31378;SDS011;61664;48.112;11.662;2023-06-04T10:37:34;1.33;;;1.13;;
31378;SDS011;61664;48.112;11.662;2023-06-04T10:40:01;2.25;;;1.10;;
31378;SDS011;61664;48.112;11.662;2023-06-04T10:42:37;1.67;;;1.40;;
31378;SDS011;61664;48.112;11.662;2023-06-04T10:45:10;1.48;;;1.33;;
31378;SDS011;61664;48.112;11.662;2023-06-04T10:47:38;1.30;;;1.20;;
31378;SDS011;61664;48.112;11.662;2023-06-04T10:50:11;1.48;;;1.38;;
31378;SDS011;61664;48.112;11.662;2023-06-04T10:52:52;0.88;;;0.88;;
31378;SDS011;61664;48.112;11.662;2023-06-04T10:55:21;1.08;;;1.05;;
31378;SDS011;61664;48.112;11.662;2023-06-04T10:57:51;1.10;;;1.08;;
31378;SDS011;61664;48.112;11.662;2023-06-04T11:00:33;2.28;;;2.08;;
31378;SDS011;61664;48.112;11.662;2023-06-04T11:03:16;2.67;;;2.47;;
31378;SDS011;61664;48.112;11.662;2023-06-04T11:05:44;3.17;;;1.77;;
31378;SDS011;61664;48.112;11.662;2023-06-04T11:08:14;3.75;;;1.70;;
31378;SDS011;61664;48.112;11.662;2023-06-04T11:10:52;0.95;;;0.95;;
31378;SDS011;61664;48.112;11.662;2023-06-04T11:13:22;1.70;;;1.60;;
31378;SDS011;61664;48.112;11.662;2023-06-04T11:15:51;2.35;;;2.15;;
31378;SDS011;61664;48.112;11.662;2023-06-04T11:18:19;1.55;;;1.30;;
31378;SDS011;61664;48.112;11.662;2023-06-04T11:20:49;1.20;;;1.13;;
31378;SDS011;61664;48.112;11.662;2023-06-04T11:23:25;1.42;;;1.27;;
31378;SDS011;61664;48.112;11.662;2023-06-04T11:25:52;0.85;;;0.85;;
31378;SDS011;61664;48.112;11.662;2023-06-04T11:28:21;2.00;;;1.90;;
31378;SDS011;61664;48.112;11.662;2023-06-04T11:30:58;3.10;;;2.88;;
31378;SDS011;61664;48.112;11.662;2023-06-04T11:33:29;2.88;;;1.92;;
31378;SDS011;61664;48.112;11.662;2023-06-04T11:36:08;2.42;;;2.22;;
31378;SDS011;61664;48.112;11.662;2023-06-04T11:38:35;1.50;;;1.40;;
31378;SDS011;61664;48.112;11.662;2023-06-04T11:41:02;1.58;;;1.48;;
31378;SDS011;61664;48.112;11.662;2023-06-04T11:43:31;6.13;;;1.57;;
31378;SDS011;61664;48.112;11.662;2023-06-04T11:46:05;1.10;;;1.10;;
31378;SDS011;61664;48.112;11.662;2023-06-04T11:48:36;1.52;;;1.42;;
31378;SDS011;61664;48.112;11.662;2023-06-04T11:51:07;1.70;;;1.60;;
31378;SDS011;61664;48.112;11.662;2023-06-04T11:53:36;1.83;;;1.70;;
31378;SDS011;61664;48.112;11.662;2023-06-04T11:56:04;1.70;;;1.55;;
31378;SDS011;61664;48.112;11.662;2023-06-04T11:58:32;1.67;;;1.58;;
31378;SDS011;61664;48.112;11.662;2023-06-04T12:00:59;1.80;;;1.70;;
31378;SDS011;61664;48.112;11.662;2023-06-04T12:03:37;1.45;;;1.30;;
31378;SDS011;61664;48.112;11.662;2023-06-04T12:06:10;1.80;;;1.50;;
31378;SDS011;61664;48.112;11.662;2023-06-04T12:08:46;1.88;;;1.65;;
31378;SDS011;61664;48.112;11.662;2023-06-04T12:11:31;1.63;;;1.35;;
31378;SDS011;61664;48.112;11.662;2023-06-04T12:14:00;2.20;;;1.60;;
31378;SDS011;61664;48.112;11.662;2023-06-04T12:16:33;1.70;;;1.60;;
31378;SDS011;61664;48.112;11.662;2023-06-04T12:19:19;1.33;;;1.23;;
31378;SDS011;61664;48.112;11.662;2023-06-04T12:21:46;1.70;;;1.60;;
31378;SDS011;61664;48.112;11.662;2023-06-04T12:24:14;1.33;;;1.23;;
31378;SDS011;61664;48.112;11.662;2023-06-04T12:26:41;1.90;;;1.80;;
31378;SDS011;61664;48.112;11.662;2023-06-04T12:29:14;1.65;;;1.55;;
31378;SDS011;61664;48.112;11.662;2023-06-04T12:31:44;1.77;;;1.67;;
31378;SDS011;61664;48.112;11.662;2023-06-04T12:34:13;1.50;;;1.40;;
31378;SDS011;61664;48.112;11.662;2023-06-04T12:36:41;1.55;;;1.45;;
31378;SDS011;61664;48.112;11.662;2023-06-04T12:39:09;1.70;;;1.60;;
31378;SDS011;61664;48.112;11.662;2023-06-04T12:41:36;1.60;;;1.50;;
31378;SDS011;61664;48.112;11.662;2023-06-04T12:44:03;1.40;;;1.30;;
31378;SDS011;61664;48.112;11.662;2023-06-04T12:46:30;2.00;;;1.83;;
31378;SDS011;61664;48.112;11.662;2023-06-04T12:48:57;1.70;;;1.60;;
31378;SDS011;61664;48.112;11.662;2023-06-04T12:51:24;1.60;;;1.50;;
31378;SDS011;61664;48.112;11.662;2023-06-04T12:53:51;1.73;;;1.63;;
31378;SDS011;61664;48.112;11.662;2023-06-04T12:56:19;1.30;;;1.30;;
31378;SDS011;61664;48.112;11.662;2023-06-04T12:58:46;1.85;;;1.13;;
31378;SDS011;61664;48.112;11.662;2023-06-04T13:01:14;1.80;;;1.52;;
31378;SDS011;61664;48.112;11.662;2023-06-04T13:03:41;2.28;;;2.10;;
31378;SDS011;61664;48.112;11.662;2023-06-04T13:06:08;1.90;;;1.80;;
31378;SDS011;61664;48.112;11.662;2023-06-04T13:08:36;1.60;;;1.50;;
31378;SDS011;61664;48.112;11.662;2023-06-04T13:11:03;1.52;;;1.42;;
31378;SDS011;61664;48.112;11.662;2023-06-04T13:13:32;1.67;;;1.58;;
31378;SDS011;61664;48.112;11.662;2023-06-04T13:15:59;3.03;;;1.88;;
31378;SDS011;61664;48.112;11.662;2023-06-04T13:18:26;1.40;;;1.30;;
31378;SDS011;61664;48.112;11.662;2023-06-04T13:20:53;1.90;;;1.80;;
31378;SDS011;61664;48.112;11.662;2023-06-04T13:23:20;2.00;;;1.83;;
31378;SDS011;61664;48.112;11.662;2023-06-04T13:25:54;1.67;;;1.58;;
31378;SDS011;61664;48.112;11.662;2023-06-04T13:28:21;1.58;;;1.30;;
31378;SDS011;61664;48.112;11.662;2023-06-04T13:30:48;1.50;;;1.40;;
31378;SDS011;61664;48.112;11.662;2023-06-04T13:33:15;1.90;;;1.60;;
31378;SDS011;61664;48.112;11.662;2023-06-04T13:35:42;1.58;;;1.48;;
31378;SDS011;61664;48.112;11.662;2023-06-04T13:38:10;1.35;;;1.25;;
31378;SDS011;61664;48.112;11.662;2023-06-04T13:40:38;1.40;;;1.30;;
31378;SDS011;61664;48.112;11.662;2023-06-04T13:43:05;1.60;;;1.50;;
31378;SDS011;61664;48.112;11.662;2023-06-04T13:45:34;1.63;;;1.52;;
31378;SDS011;61664;48.112;11.662;2023-06-04T13:48:01;2.13;;;2.00;;
31378;SDS011;61664;48.112;11.662;2023-06-04T13:50:32;1.50;;;1.27;;
31378;SDS011;61664;48.112;11.662;2023-06-04T13:53:00;1.52;;;1.40;;
31378;SDS011;61664;48.112;11.662;2023-06-04T13:55:27;1.73;;;1.63;;
31378;SDS011;61664;48.112;11.662;2023-06-04T13:57:56;1.65;;;1.55;;
31378;SDS011;61664;48.112;11.662;2023-06-04T14:00:23;1.63;;;1.50;;
31378;SDS011;61664;48.112;11.662;2023-06-04T14:02:50;1.50;;;1.40;;
31378;SDS011;61664;48.112;11.662;2023-06-04T14:05:18;1.13;;;1.13;;
31378;SDS011;61664;48.112;11.662;2023-06-04T14:07:45;1.73;;;1.63;;
31378;SDS011;61664;48.112;11.662;2023-06-04T14:10:12;1.63;;;1.52;;
31378;SDS011;61664;48.112;11.662;2023-06-04T14:12:40;2.25;;;1.33;;
31378;SDS011;61664;48.112;11.662;2023-06-04T14:15:07;1.48;;;1.38;;
31378;SDS011;61664;48.112;11.662;2023-06-04T14:17:35;1.50;;;1.40;;
31378;SDS011;61664;48.112;11.662;2023-06-04T14:20:02;1.50;;;1.30;;
31378;SDS011;61664;48.112;11.662;2023-06-04T14:22:37;1.58;;;1.02;;
31378;SDS011;61664;48.112;11.662;2023-06-04T14:25:04;2.00;;;1.90;;
31378;SDS011;61664;48.112;11.662;2023-06-04T14:27:34;1.45;;;1.35;;
31378;SDS011;61664;48.112;11.662;2023-06-04T14:30:02;2.28;;;1.35;;
31378;SDS011;61664;48.112;11.662;2023-06-04T14:32:31;1.88;;;1.48;;
31378;SDS011;61664;48.112;11.662;2023-06-04T14:35:00;1.77;;;1.67;;
31378;SDS011;61664;48.112;11.662;2023-06-04T14:37:27;2.50;;;1.40;;
31378;SDS011;61664;48.112;11.662;2023-06-04T14:39:54;1.55;;;1.45;;
31378;SDS011;61664;48.112;11.662;2023-06-04T14:42:21;1.50;;;1.40;;
31378;SDS011;61664;48.112;11.662;2023-06-04T14:44:48;1.33;;;1.30;;
31378;SDS011;61664;48.112;11.662;2023-06-04T14:47:15;1.90;;;1.80;;
31378;SDS011;61664;48.112;11.662;2023-06-04T14:49:41;1.70;;;1.60;;
31378;SDS011;61664;48.112;11.662;2023-06-04T14:52:08;1.65;;;1.55;;